createdAt,value
2019-01-13T22:51:28.071Z,72.13
2019-01-13T22:52:28.015Z,72.13
2019-01-13T22:53:28.751Z,71.00
2019-01-13T22:55:40.175Z,70.07
2019-01-13T22:56:40.388Z,71.51
2019-01-13T22:57:39.767Z,70.28
2019-01-13T22:58:39.748Z,71.10
2019-01-13T22:59:39.746Z,70.18
2019-01-13T23:00:39.760Z,70.59
2019-01-13T23:01:39.814Z,69.97
2019-01-13T23:02:39.739Z,69.87
2019-01-13T23:03:40.020Z,68.94
2019-01-13T23:04:39.995Z,69.18
2019-01-13T23:05:39.701Z,69.04
2019-01-13T23:06:39.676Z,69.97
2019-01-13T23:07:39.650Z,68.53
2019-01-13T23:08:39.636Z,68.35
2019-01-13T23:09:39.626Z,69.28
2019-01-13T23:10:39.627Z,69.38
2019-01-13T23:11:39.606Z,68.56
2019-01-13T23:12:39.846Z,68.77
2019-01-13T23:13:39.584Z,68.98
2019-01-13T23:14:39.574Z,68.98
2019-01-13T23:15:39.632Z,68.90
2019-01-13T23:16:39.553Z,69.31
2019-01-13T23:17:39.577Z,69.18
2019-01-13T23:18:39.539Z,69.01
2019-01-13T23:19:39.518Z,69.07
2019-01-13T23:20:39.526Z,69.93
2019-01-13T23:21:39.588Z,69.07
2019-01-13T23:22:39.495Z,68.66
2019-01-13T23:23:39.490Z,68.90
2019-01-13T23:24:39.470Z,68.90
2019-01-13T23:25:39.455Z,68.46
2019-01-13T23:26:39.469Z,68.87
2019-01-13T23:27:39.435Z,68.66
2019-01-13T23:28:39.525Z,68.87
2019-01-13T23:29:39.438Z,68.29
2019-01-13T23:30:39.400Z,66.84
2019-01-13T23:31:39.397Z,67.36
2019-01-13T23:32:39.412Z,67.57
2019-01-13T23:33:39.367Z,65.71
2019-01-13T23:34:39.359Z,66.12
2019-01-13T23:35:39.345Z,65.61
2019-01-13T23:39:27.203Z,66.22
2019-01-13T23:40:23.149Z,65.92
2019-01-13T23:41:23.254Z,65.33
2019-01-13T23:42:23.106Z,65.50
2019-01-13T23:43:23.038Z,65.95
2019-01-13T23:44:33.068Z,66.25
2019-01-13T23:45:23.053Z,65.64
2019-01-13T23:49:05.369Z,66.05
2019-01-13T23:50:05.358Z,67.18
2019-01-13T23:51:05.104Z,67.29
2019-01-13T23:52:14.122Z,66.67
2019-01-13T23:53:05.278Z,65.43
2019-01-13T23:54:05.983Z,65.02
2019-01-13T23:55:30.519Z,65.09
2019-01-13T23:56:05.247Z,65.40
2019-01-13T23:58:21.015Z,66.25
2019-01-13T23:59:20.670Z,66.12
